createdAt,value
2024-01-28T00:02:24.598Z,18.00
2024-01-28T00:04:56.970Z,11.60
2024-01-28T00:07:29.295Z,23.90
2024-01-28T00:10:01.813Z,22.80
2024-01-28T00:12:34.426Z,15.60
2024-01-28T00:15:08.475Z,14.70
2024-01-28T00:17:40.931Z,13.50
2024-01-28T00:20:15.824Z,12.40
2024-01-28T00:22:48.177Z,14.20
2024-01-28T00:25:20.568Z,16.80
2024-01-28T00:27:52.974Z,15.10
2024-01-28T00:30:31.455Z,12.20
2024-01-28T00:33:04.023Z,15.10
2024-01-28T00:35:36.473Z,10.40
2024-01-28T00:38:10.700Z,11.50
2024-01-28T00:40:43.118Z,57.20
2024-01-28T00:43:15.464Z,24.30
2024-01-28T00:45:48.076Z,29.80
2024-01-28T00:48:20.612Z,19.50
2024-01-28T00:50:53.201Z,26.80
2024-01-28T00:53:25.578Z,24.70
2024-01-28T00:55:58.047Z,10.80
2024-01-28T00:58:30.965Z,15.00
2024-01-28T01:01:03.490Z,12.80
2024-01-28T01:03:35.996Z,24.50
2024-01-28T01:06:09.308Z,12.80
2024-01-28T01:08:41.663Z,15.20
2024-01-28T01:11:14.377Z,17.30
2024-01-28T01:13:46.733Z,15.50
2024-01-28T01:16:19.392Z,13.60
2024-01-28T01:18:52.035Z,9.90
2024-01-28T01:21:24.598Z,14.80
2024-01-28T01:23:57.549Z,40.70
2024-01-28T01:26:29.939Z,13.10
2024-01-28T01:29:02.305Z,12.30
2024-01-28T01:31:34.691Z,19.30
2024-01-28T01:34:07.496Z,14.20
2024-01-28T01:36:40.061Z,8.50
2024-01-28T01:39:13.594Z,11.50
2024-01-28T01:41:46.142Z,9.20
2024-01-28T01:44:18.911Z,7.20
2024-01-28T01:46:51.302Z,10.30
2024-01-28T01:49:23.921Z,9.30
2024-01-28T01:51:57.132Z,11.30
2024-01-28T01:54:29.956Z,11.70
2024-01-28T01:57:03.601Z,10.70
2024-01-28T01:59:36.905Z,9.80
2024-01-28T02:02:12.105Z,9.60
2024-01-28T02:04:45.178Z,7.60
2024-01-28T02:07:17.699Z,7.90
2024-01-28T02:09:50.147Z,9.80
2024-01-28T02:12:22.942Z,14.70
2024-01-28T02:15:06.875Z,17.50
2024-01-28T02:17:39.613Z,15.30
2024-01-28T02:20:14.643Z,25.00
2024-01-28T02:22:47.118Z,17.90
2024-01-28T02:25:19.487Z,9.80
2024-01-28T02:27:52.146Z,9.50
2024-01-28T02:30:24.507Z,20.50
2024-01-28T02:32:57.194Z,11.00
2024-01-28T02:35:29.635Z,9.00
2024-01-28T02:38:02.201Z,8.40
2024-01-28T02:40:35.153Z,14.60
2024-01-28T02:43:08.814Z,14.70
2024-01-28T02:45:41.198Z,16.90
2024-01-28T02:48:13.715Z,11.00
2024-01-28T02:50:46.254Z,12.60
2024-01-28T02:53:19.053Z,22.20
2024-01-28T02:55:51.419Z,10.60
2024-01-28T02:58:23.805Z,10.80
2024-01-28T03:00:56.398Z,7.60
2024-01-28T03:03:29.495Z,9.20
2024-01-28T03:06:02.191Z,10.10
2024-01-28T03:08:35.267Z,15.90
2024-01-28T03:11:07.790Z,15.80
2024-01-28T03:13:40.863Z,8.60
2024-01-28T03:16:13.138Z,9.20
2024-01-28T03:18:45.626Z,9.30
2024-01-28T03:21:18.139Z,5.40
2024-01-28T03:23:50.557Z,10.40
2024-01-28T03:26:22.945Z,10.40
2024-01-28T03:28:55.343Z,10.40
2024-01-28T03:31:27.895Z,11.70
2024-01-28T03:34:00.683Z,7.50
2024-01-28T03:36:33.153Z,6.20
2024-01-28T03:39:06.617Z,10.10
2024-01-28T03:41:39.723Z,7.90
2024-01-28T03:44:12.949Z,16.60
2024-01-28T03:46:45.278Z,8.70
2024-01-28T03:49:17.719Z,6.60
2024-01-28T03:51:50.585Z,11.00
2024-01-28T03:54:23.098Z,16.10
2024-01-28T03:56:55.456Z,16.40
2024-01-28T03:59:28.989Z,16.80
2024-01-28T04:02:02.821Z,21.80
2024-01-28T04:04:35.355Z,10.00
2024-01-28T04:07:07.908Z,12.10
2024-01-28T04:09:42.312Z,11.10
2024-01-28T04:12:14.819Z,8.20
2024-01-28T04:14:47.162Z,13.40
2024-01-28T04:17:19.728Z,5.80
2024-01-28T04:19:53.456Z,18.60
2024-01-28T04:22:26.043Z,13.00
2024-01-28T04:24:58.445Z,9.00
2024-01-28T04:27:30.863Z,20.40
2024-01-28T04:30:04.021Z,9.80
2024-01-28T04:32:36.442Z,10.80
2024-01-28T04:35:12.527Z,12.50
2024-01-28T04:37:44.976Z,16.80
2024-01-28T04:40:17.813Z,12.70
2024-01-28T04:42:50.148Z,18.90
2024-01-28T04:45:22.546Z,15.40
2024-01-28T04:47:55.007Z,10.40
2024-01-28T04:50:27.600Z,20.60
2024-01-28T04:52:59.901Z,9.40
2024-01-28T04:55:32.452Z,12.80
2024-01-28T04:58:04.933Z,9.60
2024-01-28T05:00:37.351Z,11.20
2024-01-28T05:03:10.101Z,8.30
2024-01-28T05:05:42.739Z,10.70
2024-01-28T05:08:15.701Z,7.60
2024-01-28T05:10:48.096Z,8.70
2024-01-28T05:13:20.557Z,31.50
2024-01-28T05:15:53.011Z,20.70
2024-01-28T05:18:25.837Z,13.80
2024-01-28T05:20:58.676Z,11.10
2024-01-28T05:23:31.034Z,11.80
2024-01-28T05:26:03.642Z,33.10
2024-01-28T05:28:36.253Z,15.80
2024-01-28T05:31:09.432Z,17.00
2024-01-28T05:33:42.558Z,14.40
2024-01-28T05:36:18.455Z,17.40
2024-01-28T05:38:50.751Z,24.40
2024-01-28T05:41:23.207Z,29.70
2024-01-28T05:43:55.550Z,44.30
2024-01-28T05:46:27.897Z,19.20
2024-01-28T05:49:00.270Z,19.00
2024-01-28T05:51:35.642Z,20.10
2024-01-28T05:54:08.432Z,29.10
2024-01-28T05:56:40.966Z,25.80
2024-01-28T05:59:13.300Z,18.10
2024-01-28T06:01:45.812Z,18.70
2024-01-28T06:04:18.217Z,12.70
2024-01-28T06:06:50.784Z,20.10
2024-01-28T06:09:23.313Z,15.20
2024-01-28T06:11:55.675Z,11.80
2024-01-28T06:14:28.981Z,8.50
2024-01-28T06:17:01.361Z,8.70
2024-01-28T06:19:33.762Z,12.60
2024-01-28T06:22:06.480Z,15.90
2024-01-28T06:24:43.444Z,9.80
2024-01-28T06:27:16.426Z,9.30
2024-01-28T06:29:48.898Z,7.30
2024-01-28T06:32:23.150Z,7.70
2024-01-28T06:34:55.660Z,6.30
2024-01-28T06:37:28.530Z,9.10
2024-01-28T06:40:01.515Z,10.80
2024-01-28T06:42:34.105Z,8.20
2024-01-28T06:45:09.221Z,8.00
2024-01-28T06:47:43.100Z,8.20
2024-01-28T06:50:15.806Z,7.50
2024-01-28T06:52:49.277Z,5.80
2024-01-28T06:55:21.673Z,20.60
2024-01-28T06:57:53.981Z,56.80
2024-01-28T07:00:26.687Z,35.20
2024-01-28T07:02:59.945Z,18.20
2024-01-28T07:05:34.091Z,16.00
2024-01-28T07:08:08.869Z,13.20
2024-01-28T07:10:41.254Z,19.70
2024-01-28T07:13:13.692Z,20.30
2024-01-28T07:15:46.190Z,14.00
2024-01-28T07:18:19.442Z,14.90
2024-01-28T07:20:51.764Z,11.10
2024-01-28T07:23:24.307Z,17.70
2024-01-28T07:25:56.659Z,15.70
2024-01-28T07:28:29.186Z,17.40
2024-01-28T07:31:01.738Z,23.60
2024-01-28T07:33:34.339Z,13.00
2024-01-28T07:36:07.166Z,12.00
2024-01-28T07:38:39.507Z,10.80
2024-01-28T07:41:15.848Z,16.90
2024-01-28T07:43:48.418Z,16.70
2024-01-28T07:46:22.984Z,22.40
2024-01-28T07:48:55.397Z,28.00
2024-01-28T07:51:28.210Z,23.30
2024-01-28T07:54:00.586Z,231.90
2024-01-28T07:56:33.074Z,206.70
2024-01-28T07:59:05.438Z,130.90
2024-01-28T08:01:38.147Z,144.50
2024-01-28T08:04:10.783Z,186.90
2024-01-28T08:06:43.227Z,72.50
2024-01-28T08:09:15.719Z,97.30
2024-01-28T08:11:48.191Z,84.40
2024-01-28T08:14:20.550Z,63.20
2024-01-28T08:16:52.932Z,51.60
2024-01-28T08:19:25.711Z,64.40
2024-01-28T08:21:58.200Z,39.10
2024-01-28T08:24:30.641Z,27.90
2024-01-28T08:27:03.081Z,53.30
2024-01-28T08:29:35.601Z,28.90
2024-01-28T08:32:08.930Z,35.20
2024-01-28T08:34:41.326Z,59.90
2024-01-28T08:37:13.673Z,31.00
2024-01-28T08:39:46.409Z,33.30
2024-01-28T08:42:20.460Z,21.10
2024-01-28T08:44:53.050Z,23.70
2024-01-28T08:47:25.495Z,30.10
2024-01-28T08:49:58.678Z,20.30
2024-01-28T08:52:31.113Z,15.80
2024-01-28T08:55:03.969Z,17.50
2024-01-28T08:57:36.558Z,40.20
2024-01-28T09:00:13.640Z,17.80
2024-01-28T09:02:46.076Z,16.70
2024-01-28T09:05:19.017Z,13.20
2024-01-28T09:07:53.058Z,19.50
2024-01-28T09:10:25.487Z,13.50
2024-01-28T09:12:57.918Z,15.90
2024-01-28T09:15:30.419Z,18.10
2024-01-28T09:18:03.538Z,21.70
2024-01-28T09:20:35.944Z,23.00
2024-01-28T09:23:08.392Z,20.80
2024-01-28T09:25:40.847Z,33.50
2024-01-28T09:28:13.270Z,32.70
2024-01-28T09:30:46.175Z,26.80
2024-01-28T09:33:18.717Z,23.00
2024-01-28T09:35:53.707Z,19.90
2024-01-28T09:40:56.793Z,50.90
2024-01-28T09:43:32.085Z,51.90
2024-01-28T09:46:06.975Z,328.00
2024-01-28T09:48:40.114Z,43.60
2024-01-28T09:51:13.534Z,35.40
2024-01-28T09:53:46.254Z,31.10
2024-01-28T09:56:18.835Z,33.20
2024-01-28T09:58:51.800Z,34.20
2024-01-28T10:01:25.773Z,36.50
2024-01-28T10:04:01.508Z,37.50
2024-01-28T10:06:34.435Z,23.80
2024-01-28T10:09:07.131Z,23.20
2024-01-28T10:11:39.671Z,19.60
2024-01-28T10:14:12.375Z,19.80
2024-01-28T10:16:47.503Z,20.20
2024-01-28T10:19:20.032Z,22.60
2024-01-28T10:21:53.227Z,361.50
2024-01-28T10:24:26.489Z,549.90
2024-01-28T10:27:01.806Z,305.40
2024-01-28T10:29:34.722Z,77.10
2024-01-28T10:32:08.249Z,143.00
2024-01-28T10:34:41.200Z,29.50
2024-01-28T10:37:16.809Z,38.80
2024-01-28T10:39:53.392Z,19.20
2024-01-28T10:42:29.479Z,21.40
2024-01-28T10:45:02.710Z,15.70
2024-01-28T10:47:37.562Z,15.80
2024-01-28T10:52:43.545Z,19.60
2024-01-28T10:55:17.444Z,16.60
2024-01-28T10:57:50.745Z,14.60
2024-01-28T11:00:23.378Z,15.90
2024-01-28T11:02:58.052Z,12.30
2024-01-28T11:08:02.758Z,11.80
2024-01-28T11:10:35.547Z,37.20
2024-01-28T11:13:09.915Z,18.90
2024-01-28T11:15:45.361Z,15.10
2024-01-28T11:18:19.198Z,14.30
2024-01-28T11:20:51.683Z,15.50
2024-01-28T11:23:24.409Z,14.40
2024-01-28T11:26:00.012Z,15.70
2024-01-28T11:28:50.293Z,26.50
2024-01-28T11:31:33.117Z,18.10
2024-01-28T11:34:22.699Z,14.80
2024-01-28T11:36:56.421Z,15.40
2024-01-28T11:39:41.560Z,17.00
2024-01-28T11:42:14.290Z,27.00
2024-01-28T11:44:49.527Z,17.00
2024-01-28T11:47:23.813Z,19.50
2024-01-28T11:49:57.627Z,17.50
2024-01-28T11:52:30.568Z,29.80
2024-01-28T11:55:13.005Z,22.40
2024-01-28T11:57:48.602Z,15.10
2024-01-28T12:00:22.411Z,18.60
2024-01-28T12:02:55.327Z,16.80
2024-01-28T12:05:27.728Z,11.90
2024-01-28T12:08:05.005Z,22.50
2024-01-28T12:10:39.659Z,14.70
2024-01-28T12:13:13.590Z,16.70
2024-01-28T12:15:46.107Z,15.80
2024-01-28T12:18:18.766Z,27.90
2024-01-28T12:20:54.615Z,15.00
2024-01-28T12:23:27.084Z,14.80
2024-01-28T12:26:00.253Z,20.30
2024-01-28T12:28:32.817Z,19.70
2024-01-28T12:31:06.661Z,19.20
2024-01-28T12:33:40.474Z,38.90
2024-01-28T12:36:13.196Z,30.80
2024-01-28T12:38:45.600Z,40.10
2024-01-28T12:41:17.910Z,31.40
2024-01-28T12:43:53.386Z,46.50
2024-01-28T12:46:38.517Z,59.50
2024-01-28T12:49:12.980Z,55.60
2024-01-28T12:51:46.017Z,28.20
2024-01-28T12:54:19.012Z,22.00
2024-01-28T12:56:52.127Z,23.30
2024-01-28T12:59:24.790Z,19.60
2024-01-28T13:01:57.354Z,36.50
2024-01-28T13:04:30.720Z,32.70
2024-01-28T13:07:03.354Z,26.30
2024-01-28T13:09:35.764Z,42.80
2024-01-28T13:12:11.049Z,29.00
2024-01-28T13:14:43.451Z,34.20
2024-01-28T13:17:15.909Z,17.90
2024-01-28T13:19:51.547Z,21.20
2024-01-28T13:22:24.762Z,30.10
2024-01-28T13:24:57.530Z,34.60
2024-01-28T13:27:31.076Z,32.80
2024-01-28T13:30:04.250Z,32.10
2024-01-28T13:32:39.285Z,33.40
2024-01-28T13:35:12.614Z,32.20
2024-01-28T13:37:45.735Z,29.10
2024-01-28T13:40:18.215Z,36.50
2024-01-28T13:42:50.584Z,30.80
2024-01-28T13:45:22.943Z,30.40
2024-01-28T13:47:55.408Z,36.00
2024-01-28T13:50:28.029Z,50.10
2024-01-28T13:53:00.916Z,102.80
2024-01-28T13:55:33.592Z,111.70
2024-01-28T13:58:06.278Z,134.20
2024-01-28T14:00:38.748Z,130.80
2024-01-28T14:03:13.193Z,95.40
2024-01-28T14:05:45.767Z,74.20
2024-01-28T14:08:18.291Z,78.00
2024-01-28T14:10:50.648Z,92.60
2024-01-28T14:13:23.096Z,148.20
2024-01-28T14:15:55.742Z,59.00
2024-01-28T14:18:28.176Z,31.50
2024-01-28T14:21:00.544Z,32.40
2024-01-28T14:23:34.655Z,22.40
2024-01-28T14:26:09.061Z,19.20
2024-01-28T14:28:41.599Z,19.30
2024-01-28T14:31:14.558Z,36.60
2024-01-28T14:33:47.001Z,53.50
2024-01-28T14:36:19.506Z,33.70
2024-01-28T14:38:52.460Z,36.30
2024-01-28T14:41:24.834Z,179.50
2024-01-28T14:43:57.284Z,174.20
2024-01-28T14:46:29.795Z,434.60
2024-01-28T14:49:03.156Z,180.40
2024-01-28T14:51:40.420Z,137.50
2024-01-28T14:54:13.778Z,87.70
2024-01-28T14:56:46.242Z,67.00
2024-01-28T14:59:18.670Z,76.00
2024-01-28T15:01:51.057Z,51.90
2024-01-28T15:04:23.614Z,35.10
2024-01-28T15:06:56.774Z,57.70
2024-01-28T15:09:29.402Z,53.10
2024-01-28T15:12:01.912Z,35.20
2024-01-28T15:14:35.020Z,29.20
2024-01-28T15:17:08.546Z,18.40
2024-01-28T15:19:41.017Z,18.30
2024-01-28T15:22:13.919Z,15.70
2024-01-28T15:24:46.648Z,27.50
2024-01-28T15:27:19.140Z,36.20
2024-01-28T15:29:51.811Z,20.60
2024-01-28T15:32:24.290Z,20.90
2024-01-28T15:34:57.680Z,26.50
2024-01-28T15:37:33.500Z,39.20
2024-01-28T15:40:07.138Z,48.00
2024-01-28T15:42:39.543Z,67.80
2024-01-28T15:45:14.375Z,49.50
2024-01-28T15:47:48.604Z,47.70
2024-01-28T15:50:21.184Z,48.90
2024-01-28T15:52:53.571Z,69.60
2024-01-28T15:55:31.538Z,78.60
2024-01-28T15:58:04.909Z,88.90
2024-01-28T16:00:37.487Z,74.40
2024-01-28T16:03:10.237Z,88.00
2024-01-28T16:05:42.828Z,85.50
2024-01-28T16:08:15.447Z,73.90
2024-01-28T16:10:48.029Z,80.00
2024-01-28T16:13:20.806Z,78.30
2024-01-28T16:15:53.272Z,71.70
2024-01-28T16:18:25.845Z,52.80
2024-01-28T16:20:58.858Z,57.50
2024-01-28T16:23:31.239Z,64.90
2024-01-28T16:26:05.704Z,80.60
2024-01-28T16:28:38.123Z,63.60
2024-01-28T16:31:10.623Z,55.80
2024-01-28T16:33:43.092Z,35.00
2024-01-28T16:36:17.662Z,54.80
2024-01-28T16:38:50.484Z,49.40
2024-01-28T16:43:55.303Z,58.50
2024-01-28T16:46:27.769Z,103.80
2024-01-28T16:49:00.314Z,155.40
2024-01-28T16:51:32.874Z,72.40
2024-01-28T16:54:05.504Z,60.30
2024-01-28T16:56:38.111Z,133.60
2024-01-28T16:59:10.843Z,126.00
2024-01-28T17:01:44.630Z,69.90
2024-01-28T17:04:17.519Z,55.10
2024-01-28T17:06:50.120Z,123.50
2024-01-28T17:09:22.511Z,538.10
2024-01-28T17:11:55.081Z,266.70
2024-01-28T17:14:27.460Z,152.60
2024-01-28T17:16:59.968Z,85.00
2024-01-28T17:19:33.130Z,90.30
2024-01-28T17:22:06.014Z,62.80
2024-01-28T17:24:38.478Z,77.80
2024-01-28T17:27:10.881Z,77.50
2024-01-28T17:29:43.610Z,47.30
2024-01-28T17:32:16.121Z,37.50
2024-01-28T17:34:50.746Z,40.30
2024-01-28T17:39:55.546Z,55.00
2024-01-28T17:42:30.065Z,55.60
2024-01-28T17:45:02.959Z,57.20
2024-01-28T17:47:37.579Z,62.20
2024-01-28T17:50:12.761Z,63.70
2024-01-28T17:52:45.361Z,53.70
2024-01-28T17:55:18.512Z,59.50
2024-01-28T17:57:51.017Z,54.30
2024-01-28T18:00:25.880Z,43.90
2024-01-28T18:02:58.320Z,45.90
2024-01-28T18:05:31.366Z,52.10
2024-01-28T18:08:04.532Z,52.00
2024-01-28T18:10:37.031Z,46.10
2024-01-28T18:13:09.623Z,54.10
2024-01-28T18:15:42.116Z,46.80
2024-01-28T18:18:15.472Z,64.40
2024-01-28T18:20:47.991Z,66.70
2024-01-28T18:23:22.034Z,51.50
2024-01-28T18:25:54.622Z,22.40
2024-01-28T18:28:27.061Z,39.80
2024-01-28T18:30:59.477Z,49.50
2024-01-28T18:33:35.652Z,34.10
2024-01-28T18:36:10.358Z,22.30
2024-01-28T18:38:43.027Z,42.40
2024-01-28T18:41:15.764Z,53.70
2024-01-28T18:43:49.750Z,40.90
2024-01-28T18:46:22.119Z,47.10
2024-01-28T18:48:54.615Z,215.40
2024-01-28T18:51:27.042Z,106.30
2024-01-28T18:53:59.451Z,106.50
2024-01-28T18:56:31.819Z,54.70
2024-01-28T18:59:06.355Z,74.10
2024-01-28T19:01:39.008Z,151.00
2024-01-28T19:04:11.404Z,54.40
2024-01-28T19:06:43.870Z,52.00
2024-01-28T19:09:16.490Z,30.30
2024-01-28T19:11:49.334Z,28.50
2024-01-28T19:14:21.834Z,28.20
2024-01-28T19:16:54.365Z,22.90
2024-01-28T19:19:28.540Z,36.60
2024-01-28T19:22:01.281Z,39.70
2024-01-28T19:24:34.735Z,38.00
2024-01-28T19:27:09.072Z,59.60
2024-01-28T19:29:42.050Z,54.10
2024-01-28T19:32:14.491Z,62.90
2024-01-28T19:34:46.991Z,39.20
2024-01-28T19:37:19.965Z,48.80
2024-01-28T19:39:52.292Z,46.10
2024-01-28T19:42:26.110Z,35.60
2024-01-28T19:44:58.788Z,33.10
2024-01-28T19:47:31.316Z,30.00
2024-01-28T19:50:04.244Z,28.60
2024-01-28T19:52:36.849Z,38.20
2024-01-28T19:55:10.355Z,46.30
2024-01-28T19:57:42.867Z,101.40
2024-01-28T20:00:17.200Z,37.10
2024-01-28T20:02:51.431Z,33.80
2024-01-28T20:05:24.034Z,34.80
2024-01-28T20:07:56.513Z,34.30
2024-01-28T20:10:28.905Z,34.30
2024-01-28T20:13:01.507Z,36.10
2024-01-28T20:15:34.261Z,40.20
2024-01-28T20:18:07.452Z,36.30
2024-01-28T20:20:40.167Z,28.20
2024-01-28T20:23:15.043Z,26.60
2024-01-28T20:25:53.993Z,29.60
2024-01-28T20:28:28.270Z,36.70
2024-01-28T20:31:00.815Z,44.60
2024-01-28T20:33:33.346Z,47.40
2024-01-28T20:36:06.387Z,35.20
2024-01-28T20:38:39.249Z,32.10
2024-01-28T20:41:11.756Z,28.50
2024-01-28T20:43:44.648Z,46.50
2024-01-28T20:46:17.128Z,27.10
2024-01-28T20:48:53.169Z,31.70
2024-01-28T20:51:25.813Z,22.90
2024-01-28T20:53:58.257Z,27.70
2024-01-28T20:56:30.651Z,26.80
2024-01-28T20:59:03.094Z,36.70
2024-01-28T21:01:35.766Z,40.00
2024-01-28T21:04:08.381Z,28.10
2024-01-28T21:06:41.075Z,29.70
2024-01-28T21:09:13.421Z,32.90
2024-01-28T21:11:45.821Z,28.30
2024-01-28T21:14:18.383Z,33.10
2024-01-28T21:16:51.642Z,56.70
2024-01-28T21:19:29.190Z,35.80
2024-01-28T21:22:29.365Z,28.80
2024-01-28T21:25:01.938Z,34.40
2024-01-28T21:27:36.290Z,52.40
2024-01-28T21:30:11.298Z,36.20
2024-01-28T21:32:43.945Z,27.90
2024-01-28T21:35:16.601Z,26.50
2024-01-28T21:37:49.143Z,27.00
2024-01-28T21:40:21.467Z,31.50
2024-01-28T21:42:53.913Z,35.90
2024-01-28T21:45:26.387Z,25.90
2024-01-28T21:47:58.874Z,33.70
2024-01-28T21:50:31.241Z,28.50
2024-01-28T21:53:03.590Z,25.10
2024-01-28T21:55:36.077Z,42.20
2024-01-28T21:58:08.623Z,33.60
2024-01-28T22:00:41.112Z,48.00
2024-01-28T22:03:13.591Z,27.10
2024-01-28T22:05:46.561Z,32.20
2024-01-28T22:08:19.406Z,33.60
2024-01-28T22:10:51.851Z,33.40
2024-01-28T22:13:24.429Z,36.60
2024-01-28T22:15:56.854Z,34.30
2024-01-28T22:18:30.082Z,30.60
2024-01-28T22:21:03.303Z,31.50
2024-01-28T22:23:35.689Z,25.80
2024-01-28T22:26:08.204Z,31.30
2024-01-28T22:28:42.553Z,26.30
2024-01-28T22:31:15.242Z,30.10
2024-01-28T22:33:48.303Z,31.80
2024-01-28T22:36:20.639Z,27.10
2024-01-28T22:38:53.168Z,25.90
2024-01-28T22:41:25.575Z,28.20
2024-01-28T22:43:59.249Z,41.50
2024-01-28T22:46:31.690Z,26.00
2024-01-28T22:49:04.234Z,23.40
2024-01-28T22:51:38.102Z,22.20
2024-01-28T22:54:11.461Z,22.10
2024-01-28T22:56:44.215Z,18.40
2024-01-28T22:59:16.531Z,20.30
2024-01-28T23:01:50.429Z,20.40
2024-01-28T23:04:23.060Z,22.80
2024-01-28T23:06:55.493Z,19.40
2024-01-28T23:09:28.214Z,20.10
2024-01-28T23:12:01.689Z,20.90
2024-01-28T23:14:34.125Z,19.50
2024-01-28T23:17:06.893Z,21.70
2024-01-28T23:19:39.344Z,18.60
2024-01-28T23:22:12.151Z,21.30
2024-01-28T23:24:44.647Z,23.90
2024-01-28T23:27:17.037Z,23.30
2024-01-28T23:29:49.654Z,23.40
2024-01-28T23:32:22.012Z,23.20
2024-01-28T23:34:54.542Z,26.60
2024-01-28T23:37:27.159Z,25.30
2024-01-28T23:39:59.928Z,24.70
2024-01-28T23:42:32.375Z,23.10
2024-01-28T23:45:05.298Z,27.00
2024-01-28T23:47:37.679Z,26.00
2024-01-28T23:50:11.923Z,23.80
2024-01-28T23:52:44.500Z,19.70
2024-01-28T23:55:16.879Z,21.80
2024-01-28T23:57:49.326Z,19.50
